createdAt,value
2023-02-28T00:00:41.470Z,5.55
2023-02-28T00:03:09.095Z,2.40
2023-02-28T00:05:36.765Z,2.42
2023-02-28T00:08:04.551Z,2.17
2023-02-28T00:10:33.205Z,5.20
2023-02-28T00:13:03.285Z,3.35
2023-02-28T00:15:30.987Z,2.72
2023-02-28T00:18:00.086Z,3.25
2023-02-28T00:20:27.999Z,2.38
2023-02-28T00:22:56.018Z,2.45
2023-02-28T00:25:26.698Z,3.55
2023-02-28T00:27:54.354Z,4.38
2023-02-28T00:30:24.495Z,3.42
2023-02-28T00:32:52.717Z,2.90
2023-02-28T00:35:21.721Z,3.38
2023-02-28T00:37:50.540Z,4.53
2023-02-28T00:40:18.609Z,3.28
2023-02-28T00:42:46.197Z,3.72
2023-02-28T00:45:13.791Z,5.00
2023-02-28T00:47:41.396Z,2.75
2023-02-28T00:50:10.643Z,2.53
2023-02-28T00:52:39.526Z,4.38
2023-02-28T00:55:07.596Z,3.85
2023-02-28T00:57:35.188Z,3.42
2023-02-28T01:00:02.993Z,3.15
2023-02-28T01:02:30.615Z,2.92
2023-02-28T01:04:58.734Z,3.03
2023-02-28T01:07:26.403Z,3.47
2023-02-28T01:09:56.335Z,2.78
2023-02-28T01:12:23.874Z,3.10
2023-02-28T01:14:51.480Z,4.47
2023-02-28T01:17:19.578Z,3.50
2023-02-28T01:19:47.191Z,3.40
2023-02-28T01:22:14.904Z,3.28
2023-02-28T01:24:43.681Z,2.92
2023-02-28T01:27:15.372Z,4.18
2023-02-28T01:29:42.916Z,4.93
2023-02-28T01:32:10.807Z,3.13
2023-02-28T01:34:38.668Z,1.98
2023-02-28T01:37:06.344Z,3.05
2023-02-28T01:39:34.126Z,3.00
2023-02-28T01:42:01.674Z,2.55
2023-02-28T01:45:03.417Z,3.47
2023-02-28T01:47:35.841Z,4.82
2023-02-28T01:50:09.409Z,2.85
2023-02-28T01:52:37.808Z,2.85
2023-02-28T01:55:09.042Z,3.30
2023-02-28T01:57:43.459Z,2.90
2023-02-28T02:00:16.026Z,2.88
2023-02-28T02:02:51.201Z,4.25
2023-02-28T02:05:21.800Z,2.53
2023-02-28T02:07:54.014Z,3.90
2023-02-28T02:10:24.214Z,2.40
2023-02-28T02:13:11.009Z,3.50
2023-02-28T02:15:48.238Z,5.47
2023-02-28T02:18:25.968Z,4.00
2023-02-28T02:21:21.664Z,3.13
2023-02-28T02:24:13.619Z,3.30
2023-02-28T02:26:57.438Z,3.72
2023-02-28T02:30:18.829Z,2.78
2023-02-28T02:33:20.510Z,4.65
2023-02-28T02:35:56.430Z,4.07
2023-02-28T02:38:35.189Z,4.20
2023-02-28T02:41:10.591Z,4.05
2023-02-28T02:43:42.784Z,4.43
2023-02-28T02:46:14.152Z,4.03
2023-02-28T02:48:44.198Z,3.00
2023-02-28T02:51:17.352Z,5.75
2023-02-28T02:56:21.665Z,3.30
2023-02-28T02:58:51.762Z,3.33
2023-02-28T03:01:28.732Z,3.90
2023-02-28T03:03:59.310Z,3.38
2023-02-28T03:06:28.869Z,2.60
2023-02-28T03:08:56.596Z,2.28
2023-02-28T03:11:24.782Z,3.10
2023-02-28T03:14:22.744Z,2.50
2023-02-28T03:17:13.032Z,2.65
2023-02-28T03:19:49.337Z,3.08
2023-02-28T03:22:39.581Z,4.57
2023-02-28T03:25:11.534Z,4.65
2023-02-28T03:27:42.903Z,3.83
2023-02-28T03:30:18.205Z,2.42
2023-02-28T03:32:54.848Z,3.67
2023-02-28T03:35:26.485Z,3.88
2023-02-28T03:38:02.528Z,4.53
2023-02-28T03:40:33.844Z,3.67
2023-02-28T03:43:08.939Z,2.90
2023-02-28T03:45:40.423Z,3.95
2023-02-28T03:48:13.764Z,4.55
2023-02-28T03:50:42.757Z,3.30
2023-02-28T03:53:15.544Z,4.97
2023-02-28T03:55:53.481Z,4.32
2023-02-28T03:58:26.735Z,5.68
2023-02-28T04:03:25.483Z,3.83
2023-02-28T04:05:55.825Z,3.50
2023-02-28T04:08:24.978Z,4.53
2023-02-28T04:10:58.084Z,4.60
2023-02-28T04:13:25.680Z,4.03
2023-02-28T04:15:53.303Z,3.20
2023-02-28T04:18:20.910Z,3.17
2023-02-28T04:20:48.508Z,3.97
2023-02-28T04:23:16.100Z,5.47
2023-02-28T04:25:45.175Z,4.45
2023-02-28T04:28:12.711Z,3.90
2023-02-28T04:30:41.203Z,5.32
2023-02-28T04:33:08.825Z,3.70
2023-02-28T04:35:36.414Z,5.93
2023-02-28T04:38:04.044Z,4.57
2023-02-28T04:40:31.650Z,5.07
2023-02-28T04:43:00.585Z,4.07
2023-02-28T04:45:31.209Z,5.43
2023-02-28T04:47:58.827Z,6.28
2023-02-28T04:50:26.382Z,4.82
2023-02-28T04:52:53.936Z,5.20
2023-02-28T04:55:21.446Z,4.47
2023-02-28T04:57:49.220Z,4.30
2023-02-28T05:00:18.956Z,4.13
2023-02-28T05:02:46.561Z,7.10
2023-02-28T05:05:17.561Z,4.93
2023-02-28T05:07:45.167Z,4.88
2023-02-28T05:10:13.391Z,4.80
2023-02-28T05:12:41.025Z,4.72
2023-02-28T05:15:14.325Z,6.75
2023-02-28T05:17:43.574Z,5.88
2023-02-28T05:20:15.713Z,4.80
2023-02-28T05:22:45.381Z,4.85
2023-02-28T05:25:17.307Z,5.78
2023-02-28T05:27:45.129Z,5.28
2023-02-28T05:30:14.725Z,7.93
2023-02-28T05:32:44.550Z,3.47
2023-02-28T05:35:13.312Z,5.43
2023-02-28T05:37:41.388Z,3.42
2023-02-28T05:40:11.228Z,6.50
2023-02-28T05:42:39.025Z,4.88
2023-02-28T05:45:08.371Z,4.38
2023-02-28T05:47:36.198Z,4.20
2023-02-28T05:50:05.614Z,5.13
2023-02-28T05:52:33.194Z,5.22
2023-02-28T05:55:00.698Z,4.97
2023-02-28T05:57:28.243Z,5.63
2023-02-28T05:59:55.887Z,5.85
2023-02-28T06:02:23.502Z,4.70
2023-02-28T06:04:51.081Z,8.40
2023-02-28T06:07:20.023Z,5.57
2023-02-28T06:09:47.554Z,5.22
2023-02-28T06:12:15.148Z,4.80
2023-02-28T06:14:42.697Z,5.72
2023-02-28T06:17:11.150Z,5.60
2023-02-28T06:19:39.641Z,5.82
2023-02-28T06:22:07.219Z,6.90
2023-02-28T06:24:36.114Z,4.88
2023-02-28T06:27:05.937Z,4.90
2023-02-28T06:29:33.876Z,3.47
2023-02-28T06:32:01.533Z,7.20
2023-02-28T06:34:29.127Z,4.38
2023-02-28T06:36:56.762Z,5.32
2023-02-28T06:39:24.361Z,5.40
2023-02-28T06:41:56.107Z,7.07
2023-02-28T06:44:25.332Z,3.83
2023-02-28T06:46:53.005Z,4.20
2023-02-28T06:49:20.653Z,4.82
2023-02-28T06:51:48.170Z,5.80
2023-02-28T06:54:18.339Z,4.50
2023-02-28T06:56:45.881Z,5.93
2023-02-28T06:59:15.318Z,10.20
2023-02-28T07:01:42.928Z,6.90
2023-02-28T07:04:10.496Z,6.63
2023-02-28T07:06:38.142Z,5.43
2023-02-28T07:09:06.029Z,5.63
2023-02-28T07:11:33.766Z,5.53
2023-02-28T07:14:01.538Z,8.75
2023-02-28T07:16:30.627Z,7.43
2023-02-28T07:18:58.355Z,6.57
2023-02-28T07:21:26.290Z,7.38
2023-02-28T07:23:53.890Z,5.47
2023-02-28T07:26:22.920Z,7.85
2023-02-28T07:28:51.145Z,6.38
2023-02-28T07:31:19.443Z,4.63
2023-02-28T07:33:48.564Z,6.85
2023-02-28T07:36:19.436Z,5.50
2023-02-28T07:38:49.046Z,4.78
2023-02-28T07:41:17.435Z,6.30
2023-02-28T07:43:45.521Z,5.10
2023-02-28T07:46:15.942Z,7.97
2023-02-28T07:48:43.881Z,6.15
2023-02-28T07:51:13.163Z,6.28
2023-02-28T07:53:40.792Z,6.07
2023-02-28T07:56:09.092Z,6.28
2023-02-28T07:58:36.891Z,5.50
2023-02-28T08:01:08.885Z,5.53
2023-02-28T08:03:37.343Z,5.85
2023-02-28T08:06:05.727Z,6.10
2023-02-28T08:08:34.743Z,8.23
2023-02-28T08:11:03.782Z,8.30
2023-02-28T08:13:32.176Z,9.15
2023-02-28T08:16:00.000Z,6.65
2023-02-28T08:18:27.566Z,8.80
2023-02-28T08:20:55.291Z,7.28
2023-02-28T08:23:22.819Z,7.38
2023-02-28T08:25:56.552Z,6.25
2023-02-28T08:28:26.093Z,6.72
2023-02-28T08:30:54.745Z,4.88
2023-02-28T08:33:22.613Z,5.57
2023-02-28T08:35:50.350Z,7.82
2023-02-28T08:38:17.963Z,7.15
2023-02-28T08:40:45.490Z,6.32
2023-02-28T08:43:14.598Z,6.65
2023-02-28T08:45:42.408Z,6.80
2023-02-28T08:48:10.132Z,5.97
2023-02-28T08:50:37.730Z,4.82
2023-02-28T08:53:05.278Z,6.13
2023-02-28T08:55:32.858Z,5.50
2023-02-28T08:58:02.089Z,6.38
2023-02-28T09:00:30.958Z,7.95
2023-02-28T09:02:58.513Z,7.63
2023-02-28T09:05:26.144Z,5.60
2023-02-28T09:07:53.708Z,13.30
2023-02-28T09:10:21.550Z,7.95
2023-02-28T09:12:49.158Z,6.95
2023-02-28T09:15:16.799Z,7.03
2023-02-28T09:17:47.002Z,9.05
2023-02-28T09:20:15.754Z,7.00
2023-02-28T09:22:43.303Z,6.53
2023-02-28T09:25:10.929Z,6.95
2023-02-28T09:27:38.512Z,8.63
2023-02-28T09:30:07.229Z,6.53
2023-02-28T09:32:34.814Z,7.40
2023-02-28T09:35:03.745Z,6.85
2023-02-28T09:37:32.110Z,8.00
2023-02-28T09:39:59.938Z,7.70
2023-02-28T09:42:35.363Z,5.72
2023-02-28T09:45:08.666Z,5.80
2023-02-28T09:50:19.313Z,6.30
2023-02-28T09:52:48.984Z,6.75
2023-02-28T09:55:24.293Z,6.95
2023-02-28T09:57:53.630Z,8.10
2023-02-28T10:00:25.361Z,6.90
2023-02-28T10:03:26.298Z,6.55
2023-02-28T10:06:00.947Z,8.30
2023-02-28T10:08:32.359Z,7.88
2023-02-28T10:11:05.303Z,7.43
2023-02-28T10:13:37.453Z,6.53
2023-02-28T10:16:10.287Z,7.13
2023-02-28T10:18:45.010Z,7.18
2023-02-28T10:21:22.458Z,7.18
2023-02-28T10:23:51.527Z,6.05
2023-02-28T10:26:19.932Z,14.15
2023-02-28T10:28:47.580Z,8.02
2023-02-28T10:31:19.423Z,15.10
2023-02-28T10:33:47.337Z,7.53
2023-02-28T10:36:18.878Z,8.00
2023-02-28T10:38:48.165Z,9.02
2023-02-28T10:41:18.485Z,8.50
2023-02-28T10:43:46.822Z,8.38
2023-02-28T10:46:27.136Z,10.75
2023-02-28T10:49:05.301Z,8.70
2023-02-28T10:51:40.814Z,9.40
2023-02-28T10:54:17.969Z,8.93
2023-02-28T10:56:45.712Z,6.55
2023-02-28T10:59:30.726Z,7.88
2023-02-28T11:01:58.830Z,9.05
2023-02-28T11:04:37.574Z,7.78
2023-02-28T11:07:08.474Z,6.82
2023-02-28T11:09:39.897Z,8.15
2023-02-28T11:12:10.282Z,9.02
2023-02-28T11:14:49.055Z,8.05
2023-02-28T11:17:24.987Z,7.13
2023-02-28T11:19:57.182Z,9.25
2023-02-28T11:22:30.046Z,6.63
2023-02-28T11:25:01.508Z,8.13
2023-02-28T11:27:48.083Z,9.60
2023-02-28T11:30:36.774Z,7.53
2023-02-28T11:33:23.328Z,7.70
2023-02-28T11:35:52.412Z,7.97
2023-02-28T11:38:21.497Z,6.97
2023-02-28T11:41:06.912Z,8.07
2023-02-28T11:43:47.950Z,6.75
2023-02-28T11:46:25.626Z,9.70
2023-02-28T11:49:01.209Z,9.27
2023-02-28T11:51:32.976Z,6.82
2023-02-28T11:54:17.180Z,7.38
2023-02-28T11:56:48.786Z,7.60
2023-02-28T11:59:45.192Z,8.73
2023-02-28T12:02:25.404Z,7.40
2023-02-28T12:05:10.107Z,7.68
2023-02-28T12:07:47.658Z,7.82
2023-02-28T12:10:23.381Z,7.53
2023-02-28T12:13:07.405Z,8.02
2023-02-28T12:15:51.459Z,10.32
2023-02-28T12:18:32.511Z,8.55
2023-02-28T12:21:06.594Z,7.72
2023-02-28T12:23:54.657Z,7.15
2023-02-28T12:26:33.836Z,11.80
2023-02-28T12:29:06.647Z,9.93
2023-02-28T12:31:38.424Z,7.70
2023-02-28T12:34:11.870Z,8.60
2023-02-28T12:39:14.917Z,7.13
2023-02-28T12:41:47.803Z,6.90
2023-02-28T12:44:21.096Z,10.38
2023-02-28T12:46:52.471Z,7.18
2023-02-28T12:49:26.696Z,7.18
2023-02-28T12:51:54.968Z,8.63
2023-02-28T12:54:29.026Z,7.93
2023-02-28T12:57:05.796Z,7.47
2023-02-28T12:59:38.727Z,10.82
2023-02-28T13:03:00.587Z,11.65
2023-02-28T13:05:47.266Z,6.93
2023-02-28T13:08:40.102Z,7.60
2023-02-28T13:11:21.007Z,6.20
2023-02-28T13:13:58.638Z,7.80
2023-02-28T13:16:26.292Z,6.63
2023-02-28T13:19:11.323Z,6.22
2023-02-28T13:21:46.289Z,6.55
2023-02-28T13:24:43.456Z,6.18
2023-02-28T13:27:36.213Z,6.75
2023-02-28T13:30:42.729Z,6.07
2023-02-28T13:33:29.067Z,7.32
2023-02-28T13:36:12.985Z,8.40
2023-02-28T13:38:42.797Z,6.90
2023-02-28T13:41:48.842Z,6.38
2023-02-28T13:44:19.216Z,7.43
2023-02-28T13:47:24.678Z,7.30
2023-02-28T13:49:54.344Z,11.25
2023-02-28T13:52:25.426Z,6.95
2023-02-28T13:55:02.432Z,7.45
2023-02-28T13:57:44.415Z,8.00
2023-02-28T14:00:25.214Z,7.20
2023-02-28T14:03:14.087Z,7.88
2023-02-28T14:05:42.139Z,6.90
2023-02-28T14:08:17.855Z,6.43
2023-02-28T14:10:49.569Z,8.05
2023-02-28T14:13:46.411Z,14.38
2023-02-28T14:16:16.205Z,7.45
2023-02-28T14:18:51.822Z,8.50
2023-02-28T14:21:26.613Z,8.45
2023-02-28T14:24:18.592Z,7.43
2023-02-28T14:27:15.721Z,7.63
2023-02-28T14:30:17.229Z,8.35
2023-02-28T14:32:53.099Z,6.82
2023-02-28T14:35:47.931Z,7.50
2023-02-28T14:38:22.153Z,6.70
2023-02-28T14:40:53.213Z,10.20
2023-02-28T14:43:23.758Z,7.55
2023-02-28T14:45:56.034Z,6.53
2023-02-28T14:48:26.141Z,9.68
2023-02-28T14:50:55.830Z,8.82
2023-02-28T14:53:27.054Z,6.47
2023-02-28T14:55:58.251Z,6.50
2023-02-28T14:58:29.361Z,9.33
2023-02-28T15:01:00.794Z,6.97
2023-02-28T15:03:34.063Z,6.22
2023-02-28T15:08:35.938Z,7.68
2023-02-28T15:11:06.858Z,8.05
2023-02-28T15:13:39.630Z,7.25
2023-02-28T15:16:13.757Z,6.45
2023-02-28T15:18:48.986Z,7.30
2023-02-28T15:21:19.267Z,7.82
2023-02-28T15:23:51.241Z,8.65
2023-02-28T15:26:22.747Z,7.55
2023-02-28T15:28:53.195Z,7.47
2023-02-28T15:31:27.748Z,7.28
2023-02-28T15:33:56.791Z,6.57
2023-02-28T15:36:28.750Z,6.05
2023-02-28T15:39:01.591Z,5.97
2023-02-28T15:41:39.886Z,10.32
2023-02-28T15:44:26.778Z,10.40
2023-02-28T15:47:03.590Z,7.07
2023-02-28T15:49:45.061Z,8.38
2023-02-28T15:52:17.640Z,7.90
2023-02-28T15:54:46.673Z,8.93
2023-02-28T15:57:19.264Z,8.02
2023-02-28T15:59:53.018Z,7.77
2023-02-28T16:02:24.218Z,10.93
2023-02-28T16:05:05.089Z,7.85
2023-02-28T16:07:33.209Z,8.05
2023-02-28T16:10:01.569Z,7.50
2023-02-28T16:12:31.878Z,7.63
2023-02-28T16:15:03.736Z,7.90
2023-02-28T16:17:36.660Z,10.10
2023-02-28T16:20:13.923Z,7.38
2023-02-28T16:22:42.879Z,8.85
2023-02-28T16:25:13.911Z,7.70
2023-02-28T16:27:42.247Z,9.52
2023-02-28T16:30:19.917Z,9.25
2023-02-28T16:32:50.025Z,8.30
2023-02-28T16:35:18.928Z,9.30
2023-02-28T16:37:47.263Z,6.95
2023-02-28T16:40:16.887Z,7.97
2023-02-28T16:42:47.257Z,8.85
2023-02-28T16:45:21.105Z,9.23
2023-02-28T16:47:50.785Z,6.47
2023-02-28T16:50:20.723Z,8.93
2023-02-28T16:52:48.783Z,6.85
2023-02-28T16:55:16.882Z,8.60
2023-02-28T16:57:46.011Z,8.38
2023-02-28T17:00:15.884Z,10.25
2023-02-28T17:02:43.671Z,8.65
2023-02-28T17:05:15.040Z,8.30
2023-02-28T17:07:44.831Z,9.65
2023-02-28T17:10:18.320Z,10.73
2023-02-28T17:12:46.357Z,11.05
2023-02-28T17:15:15.903Z,15.50
2023-02-28T17:17:44.829Z,9.13
2023-02-28T17:20:16.322Z,9.48
2023-02-28T17:22:44.111Z,9.52
2023-02-28T17:25:12.870Z,9.20
2023-02-28T17:27:40.555Z,9.75
2023-02-28T17:30:16.948Z,9.55
2023-02-28T17:32:44.743Z,9.10
2023-02-28T17:35:12.680Z,11.88
2023-02-28T17:37:42.100Z,11.02
2023-02-28T17:40:15.988Z,13.38
2023-02-28T17:42:43.658Z,9.70
2023-02-28T17:45:12.301Z,13.18
2023-02-28T17:47:40.853Z,10.07
2023-02-28T17:50:13.457Z,11.70
2023-02-28T17:52:42.334Z,13.73
2023-02-28T17:55:11.516Z,17.25
2023-02-28T17:57:39.349Z,13.95
2023-02-28T18:00:08.549Z,13.63
2023-02-28T18:02:39.939Z,12.43
2023-02-28T18:05:08.987Z,10.32
2023-02-28T18:07:38.291Z,9.90
2023-02-28T18:10:08.878Z,12.45
2023-02-28T18:12:36.430Z,11.00
2023-02-28T18:15:04.280Z,11.48
2023-02-28T18:17:31.809Z,11.65
2023-02-28T18:20:00.181Z,12.75
2023-02-28T18:22:27.757Z,11.45
2023-02-28T18:24:55.329Z,12.23
2023-02-28T18:27:24.262Z,12.75
2023-02-28T18:29:52.402Z,13.55
2023-02-28T18:32:20.037Z,11.18
2023-02-28T18:34:47.671Z,14.73
2023-02-28T18:37:16.045Z,13.07
2023-02-28T18:39:43.606Z,13.25
2023-02-28T18:42:11.195Z,14.35
2023-02-28T18:44:40.780Z,14.20
2023-02-28T18:47:08.506Z,16.67
2023-02-28T18:49:37.871Z,13.88
2023-02-28T18:52:05.705Z,13.65
2023-02-28T18:54:33.300Z,13.55
2023-02-28T18:57:00.885Z,18.40
2023-02-28T18:59:28.559Z,15.98
2023-02-28T19:01:58.392Z,14.18
2023-02-28T19:04:25.975Z,13.20
2023-02-28T19:06:53.508Z,14.75
2023-02-28T19:09:21.381Z,13.02
2023-02-28T19:11:49.437Z,13.70
2023-02-28T19:14:18.180Z,13.38
2023-02-28T19:16:47.150Z,14.63
2023-02-28T19:19:16.207Z,13.90
2023-02-28T19:21:43.933Z,14.52
2023-02-28T19:24:12.274Z,13.52
2023-02-28T19:30:54.813Z,14.23
2023-02-28T19:33:22.426Z,15.93
2023-02-28T19:35:51.412Z,13.15
2023-02-28T19:38:19.195Z,12.80
2023-02-28T19:40:46.914Z,11.32
2023-02-28T19:43:14.488Z,14.30
2023-02-28T19:45:42.194Z,13.02
2023-02-28T19:48:09.842Z,11.10
2023-02-28T19:50:38.466Z,13.50
2023-02-28T19:53:07.412Z,14.07
2023-02-28T19:55:35.012Z,11.30
2023-02-28T19:58:02.653Z,12.60
2023-02-28T20:00:30.202Z,11.88
2023-02-28T20:02:57.729Z,11.85
2023-02-28T20:05:25.281Z,13.10
2023-02-28T20:07:52.884Z,10.77
2023-02-28T20:10:21.830Z,12.65
2023-02-28T20:12:49.465Z,12.85
2023-02-28T20:15:17.316Z,12.18
2023-02-28T20:17:46.587Z,10.82
2023-02-28T20:20:14.253Z,11.38
2023-02-28T20:22:41.777Z,10.95
2023-02-28T20:25:11.408Z,13.27
2023-02-28T20:27:40.343Z,11.20
2023-02-28T20:30:09.564Z,13.95
2023-02-28T20:32:38.879Z,17.52
2023-02-28T20:35:08.568Z,13.90
2023-02-28T20:37:36.559Z,12.20
2023-02-28T20:40:04.927Z,12.40
2023-02-28T20:42:32.742Z,14.68
2023-02-28T20:45:01.676Z,12.50
2023-02-28T20:47:29.340Z,10.98
2023-02-28T20:49:56.976Z,13.15
2023-02-28T20:52:24.580Z,12.07
2023-02-28T20:54:52.860Z,13.23
2023-02-28T20:57:20.656Z,13.35
2023-02-28T20:59:48.226Z,12.70
2023-02-28T21:02:21.222Z,11.48
2023-02-28T21:04:48.832Z,14.15
2023-02-28T21:07:16.388Z,14.55
2023-02-28T21:09:43.986Z,15.48
2023-02-28T21:12:11.631Z,14.13
2023-02-28T21:14:39.245Z,12.48
2023-02-28T21:17:10.409Z,16.15
2023-02-28T21:19:39.334Z,12.10
2023-02-28T21:22:06.999Z,11.10
2023-02-28T21:24:34.583Z,13.40
2023-02-28T21:27:02.153Z,14.27
2023-02-28T21:29:29.761Z,14.80
2023-02-28T21:31:57.498Z,14.40
2023-02-28T21:34:26.920Z,13.60
2023-02-28T21:36:55.870Z,13.10
2023-02-28T21:39:28.758Z,10.18
2023-02-28T21:42:03.399Z,12.48
2023-02-28T21:44:32.353Z,11.75
2023-02-28T21:47:02.720Z,13.13
2023-02-28T21:49:30.660Z,17.60
2023-02-28T21:51:59.898Z,12.38
2023-02-28T21:54:27.757Z,12.65
2023-02-28T21:56:56.378Z,22.02
2023-02-28T21:59:24.009Z,20.50
2023-02-28T22:01:51.930Z,16.05
2023-02-28T22:04:21.952Z,13.90
2023-02-28T22:06:52.454Z,15.52
2023-02-28T22:09:21.894Z,15.40
2023-02-28T22:11:49.578Z,12.77
2023-02-28T22:14:17.187Z,13.70
2023-02-28T22:16:54.294Z,15.88
2023-02-28T22:19:24.080Z,15.52
2023-02-28T22:21:53.655Z,14.73
2023-02-28T22:24:24.236Z,19.58
2023-02-28T22:26:52.824Z,16.17
2023-02-28T22:29:21.036Z,17.88
2023-02-28T22:31:48.817Z,18.92
2023-02-28T22:34:16.437Z,25.20
2023-02-28T22:36:44.927Z,19.55
2023-02-28T22:39:13.295Z,19.83
2023-02-28T22:41:42.208Z,18.42
2023-02-28T22:44:09.791Z,17.25
2023-02-28T22:46:37.842Z,16.60
2023-02-28T22:49:06.883Z,18.17
2023-02-28T22:51:35.492Z,17.05
2023-02-28T22:54:04.235Z,16.15
2023-02-28T22:56:32.170Z,17.10
2023-02-28T22:59:02.099Z,16.15
2023-02-28T23:01:32.801Z,17.52
2023-02-28T23:04:02.052Z,15.57
2023-02-28T23:06:31.581Z,15.52
2023-02-28T23:09:02.032Z,15.93
2023-02-28T23:11:31.972Z,19.15
2023-02-28T23:14:01.216Z,19.92
2023-02-28T23:16:31.013Z,17.48
2023-02-28T23:19:00.126Z,18.85
2023-02-28T23:21:28.188Z,19.73
2023-02-28T23:23:56.259Z,19.23
2023-02-28T23:26:23.856Z,15.60
2023-02-28T23:28:51.616Z,16.40
2023-02-28T23:31:21.145Z,16.40
2023-02-28T23:33:49.389Z,17.77
2023-02-28T23:36:17.318Z,20.08
2023-02-28T23:38:48.268Z,20.73
2023-02-28T23:41:16.558Z,20.65
2023-02-28T23:43:44.397Z,18.92
2023-02-28T23:46:13.420Z,16.85
2023-02-28T23:48:42.700Z,19.10
2023-02-28T23:51:11.776Z,20.73
2023-02-28T23:53:41.662Z,18.77
2023-02-28T23:56:11.603Z,21.40
2023-02-28T23:58:39.360Z,19.73
